Portada
METAR-TAF:

METAR-TAF

Aeropuertos :

Charles City, Iowa, Estados Unidos

latitud: 43-04N, longitud: 092-37W, altitud: 343 m

Observación

El informe se hizo hace 33 minutos, a las 07:35 UTC
Viento calma
Temperatura 10°C
Humedad 71%
Presión 1026 hPa
Visibilidad: 16.1 km
Cielo despejado

METAR: KCCY 310735Z AUTO 00000KT 10SM CLR 10/05 A3029 RMK AO2

Hora: 03:08 (08:08 UTC)


TAF: falta

Observaciones y pronósticos meteorológicos de más de 4000 aeropuertos (mensajes METAR y TAF).

Los puntos amarillos y rojos representan las estaciones disponibles.

Ponga el ratón en el punto deseado para ver el nombre de la estación.

Haga clic para ver las observaciones y los pronósticos meteorológicos.

Para cambiar el mapa : haga clic en los botones verdes con una cruz de color negro para hacer un zoom, en el botón verde con un guión para alejar o en las flechas verdes para mapas adyacentes.


METAR-TAF: